sensor_id;sensor_type;location;lat;lon;timestamp;P1;durP1;ratioP1;P2;durP2;ratioP2
7017;SDS011;3549;42.162;24.726;2022-07-30T00:01:49;9.23;;;6.70;;
7017;SDS011;3549;42.162;24.726;2022-07-30T00:04:15;7.33;;;6.37;;
7017;SDS011;3549;42.162;24.726;2022-07-30T00:06:40;11.13;;;6.57;;
7017;SDS011;3549;42.162;24.726;2022-07-30T00:09:06;8.73;;;7.03;;
7017;SDS011;3549;42.162;24.726;2022-07-30T00:11:31;7.43;;;6.63;;
7017;SDS011;3549;42.162;24.726;2022-07-30T00:13:57;8.70;;;7.00;;
7017;SDS011;3549;42.162;24.726;2022-07-30T00:16:22;10.27;;;6.73;;
7017;SDS011;3549;42.162;24.726;2022-07-30T00:18:48;10.47;;;6.70;;
7017;SDS011;3549;42.162;24.726;2022-07-30T00:21:13;10.17;;;6.50;;
7017;SDS011;3549;42.162;24.726;2022-07-30T00:23:39;8.37;;;6.63;;
7017;SDS011;3549;42.162;24.726;2022-07-30T00:26:04;8.67;;;6.67;;
7017;SDS011;3549;42.162;24.726;2022-07-30T00:28:30;7.03;;;6.33;;
7017;SDS011;3549;42.162;24.726;2022-07-30T00:30:55;9.37;;;6.50;;
7017;SDS011;3549;42.162;24.726;2022-07-30T00:33:21;10.27;;;6.33;;
7017;SDS011;3549;42.162;24.726;2022-07-30T00:35:46;7.53;;;6.60;;
7017;SDS011;3549;42.162;24.726;2022-07-30T00:38:12;10.57;;;6.73;;
7017;SDS011;3549;42.162;24.726;2022-07-30T00:40:37;9.03;;;6.40;;
7017;SDS011;3549;42.162;24.726;2022-07-30T00:43:04;10.73;;;6.90;;
7017;SDS011;3549;42.162;24.726;2022-07-30T00:45:29;9.13;;;6.60;;
7017;SDS011;3549;42.162;24.726;2022-07-30T00:47:55;9.37;;;6.40;;
7017;SDS011;3549;42.162;24.726;2022-07-30T00:50:20;10.03;;;7.00;;
7017;SDS011;3549;42.162;24.726;2022-07-30T00:52:45;8.37;;;7.20;;
7017;SDS011;3549;42.162;24.726;2022-07-30T00:55:12;10.50;;;7.27;;
7017;SDS011;3549;42.162;24.726;2022-07-30T00:57:39;9.37;;;7.63;;
7017;SDS011;3549;42.162;24.726;2022-07-30T01:00:06;10.30;;;7.30;;
7017;SDS011;3549;42.162;24.726;2022-07-30T01:02:33;9.97;;;7.50;;
7017;SDS011;3549;42.162;24.726;2022-07-30T01:04:59;11.17;;;7.40;;
7017;SDS011;3549;42.162;24.726;2022-07-30T01:07:24;11.57;;;7.50;;
7017;SDS011;3549;42.162;24.726;2022-07-30T01:09:50;10.47;;;7.97;;
7017;SDS011;3549;42.162;24.726;2022-07-30T01:12:16;9.47;;;7.80;;
7017;SDS011;3549;42.162;24.726;2022-07-30T01:14:45;11.50;;;7.70;;
7017;SDS011;3549;42.162;24.726;2022-07-30T01:17:11;10.53;;;8.00;;
7017;SDS011;3549;42.162;24.726;2022-07-30T01:19:38;11.30;;;8.00;;
7017;SDS011;3549;42.162;24.726;2022-07-30T01:24:55;10.07;;;7.73;;
7017;SDS011;3549;42.162;24.726;2022-07-30T01:27:22;8.33;;;7.00;;
7017;SDS011;3549;42.162;24.726;2022-07-30T01:29:49;11.07;;;7.33;;
7017;SDS011;3549;42.162;24.726;2022-07-30T01:32:17;11.60;;;7.53;;
7017;SDS011;3549;42.162;24.726;2022-07-30T01:34:47;9.37;;;7.20;;
7017;SDS011;3549;42.162;24.726;2022-07-30T01:37:15;9.57;;;7.47;;
7017;SDS011;3549;42.162;24.726;2022-07-30T01:39:41;7.97;;;7.17;;
7017;SDS011;3549;42.162;24.726;2022-07-30T01:42:08;10.27;;;6.90;;
7017;SDS011;3549;42.162;24.726;2022-07-30T01:44:36;8.53;;;6.80;;
7017;SDS011;3549;42.162;24.726;2022-07-30T01:47:03;8.83;;;7.10;;
7017;SDS011;3549;42.162;24.726;2022-07-30T01:49:30;9.63;;;6.77;;
7017;SDS011;3549;42.162;24.726;2022-07-30T01:51:58;8.80;;;6.80;;
7017;SDS011;3549;42.162;24.726;2022-07-30T01:54:25;7.93;;;6.70;;
7017;SDS011;3549;42.162;24.726;2022-07-30T01:56:53;7.67;;;6.80;;
7017;SDS011;3549;42.162;24.726;2022-07-30T01:59:21;12.03;;;7.73;;
7017;SDS011;3549;42.162;24.726;2022-07-30T02:01:48;11.40;;;8.20;;
7017;SDS011;3549;42.162;24.726;2022-07-30T02:04:14;9.47;;;7.50;;
7017;SDS011;3549;42.162;24.726;2022-07-30T02:06:42;9.67;;;7.57;;
7017;SDS011;3549;42.162;24.726;2022-07-30T02:09:21;15.53;;;8.17;;
7017;SDS011;3549;42.162;24.726;2022-07-30T02:11:50;10.87;;;8.37;;
7017;SDS011;3549;42.162;24.726;2022-07-30T02:14:47;11.37;;;8.10;;
7017;SDS011;3549;42.162;24.726;2022-07-30T02:17:18;9.93;;;7.97;;
7017;SDS011;3549;42.162;24.726;2022-07-30T02:19:48;12.43;;;8.53;;
7017;SDS011;3549;42.162;24.726;2022-07-30T02:22:17;11.07;;;8.20;;
7017;SDS011;3549;42.162;24.726;2022-07-30T02:24:44;9.53;;;7.20;;
7017;SDS011;3549;42.162;24.726;2022-07-30T02:27:14;10.07;;;7.60;;
7017;SDS011;3549;42.162;24.726;2022-07-30T02:29:42;10.77;;;7.80;;
7017;SDS011;3549;42.162;24.726;2022-07-30T02:32:11;9.33;;;7.50;;
7017;SDS011;3549;42.162;24.726;2022-07-30T02:34:39;9.63;;;7.50;;
7017;SDS011;3549;42.162;24.726;2022-07-30T02:37:07;9.83;;;8.13;;
7017;SDS011;3549;42.162;24.726;2022-07-30T02:39:36;9.60;;;8.00;;
7017;SDS011;3549;42.162;24.726;2022-07-30T02:42:03;10.60;;;8.20;;
7017;SDS011;3549;42.162;24.726;2022-07-30T02:44:31;12.90;;;8.00;;
7017;SDS011;3549;42.162;24.726;2022-07-30T02:46:59;9.90;;;7.87;;
7017;SDS011;3549;42.162;24.726;2022-07-30T02:49:27;11.00;;;7.60;;
7017;SDS011;3549;42.162;24.726;2022-07-30T02:51:55;10.90;;;7.80;;
7017;SDS011;3549;42.162;24.726;2022-07-30T02:54:22;9.53;;;7.63;;
7017;SDS011;3549;42.162;24.726;2022-07-30T02:56:50;9.80;;;7.97;;
7017;SDS011;3549;42.162;24.726;2022-07-30T02:59:17;11.53;;;7.47;;
7017;SDS011;3549;42.162;24.726;2022-07-30T03:01:46;8.90;;;7.20;;
7017;SDS011;3549;42.162;24.726;2022-07-30T03:04:13;9.83;;;7.63;;
7017;SDS011;3549;42.162;24.726;2022-07-30T03:06:40;12.93;;;7.87;;
7017;SDS011;3549;42.162;24.726;2022-07-30T03:09:08;12.17;;;7.90;;
7017;SDS011;3549;42.162;24.726;2022-07-30T03:11:34;8.67;;;7.77;;
7017;SDS011;3549;42.162;24.726;2022-07-30T03:14:01;10.20;;;7.67;;
7017;SDS011;3549;42.162;24.726;2022-07-30T03:16:27;10.60;;;8.00;;
7017;SDS011;3549;42.162;24.726;2022-07-30T03:18:55;11.93;;;8.40;;
7017;SDS011;3549;42.162;24.726;2022-07-30T03:21:26;9.20;;;7.90;;
7017;SDS011;3549;42.162;24.726;2022-07-30T03:23:54;10.43;;;8.27;;
7017;SDS011;3549;42.162;24.726;2022-07-30T03:26:22;9.33;;;8.17;;
7017;SDS011;3549;42.162;24.726;2022-07-30T03:28:49;9.47;;;8.20;;
7017;SDS011;3549;42.162;24.726;2022-07-30T03:31:15;8.70;;;7.70;;
7017;SDS011;3549;42.162;24.726;2022-07-30T03:33:41;16.00;;;8.43;;
7017;SDS011;3549;42.162;24.726;2022-07-30T03:36:08;22.60;;;9.03;;
7017;SDS011;3549;42.162;24.726;2022-07-30T03:38:36;15.77;;;8.90;;
7017;SDS011;3549;42.162;24.726;2022-07-30T03:41:04;13.57;;;8.63;;
7017;SDS011;3549;42.162;24.726;2022-07-30T03:43:30;13.23;;;9.57;;
7017;SDS011;3549;42.162;24.726;2022-07-30T03:45:57;20.57;;;9.57;;
7017;SDS011;3549;42.162;24.726;2022-07-30T03:48:22;14.43;;;9.00;;
7017;SDS011;3549;42.162;24.726;2022-07-30T03:50:49;12.33;;;8.80;;
7017;SDS011;3549;42.162;24.726;2022-07-30T03:53:15;10.90;;;8.80;;
7017;SDS011;3549;42.162;24.726;2022-07-30T03:55:43;11.87;;;8.50;;
7017;SDS011;3549;42.162;24.726;2022-07-30T03:58:08;11.87;;;9.10;;
7017;SDS011;3549;42.162;24.726;2022-07-30T04:00:35;11.63;;;8.50;;
7017;SDS011;3549;42.162;24.726;2022-07-30T04:03:03;18.93;;;10.13;;
7017;SDS011;3549;42.162;24.726;2022-07-30T04:05:28;15.23;;;10.20;;
7017;SDS011;3549;42.162;24.726;2022-07-30T04:07:53;17.73;;;8.97;;
7017;SDS011;3549;42.162;24.726;2022-07-30T04:10:19;12.13;;;9.30;;
7017;SDS011;3549;42.162;24.726;2022-07-30T04:12:44;13.10;;;9.50;;
7017;SDS011;3549;42.162;24.726;2022-07-30T04:15:10;11.73;;;9.50;;
7017;SDS011;3549;42.162;24.726;2022-07-30T04:17:37;11.60;;;9.87;;
7017;SDS011;3549;42.162;24.726;2022-07-30T04:20:07;13.57;;;9.73;;
7017;SDS011;3549;42.162;24.726;2022-07-30T04:22:41;12.57;;;10.07;;
7017;SDS011;3549;42.162;24.726;2022-07-30T04:25:07;15.53;;;10.27;;
7017;SDS011;3549;42.162;24.726;2022-07-30T04:27:33;15.17;;;10.90;;
7017;SDS011;3549;42.162;24.726;2022-07-30T04:30:00;15.73;;;11.77;;
7017;SDS011;3549;42.162;24.726;2022-07-30T04:32:26;16.03;;;11.57;;
7017;SDS011;3549;42.162;24.726;2022-07-30T04:34:53;24.70;;;17.60;;
7017;SDS011;3549;42.162;24.726;2022-07-30T04:37:21;22.00;;;14.40;;
7017;SDS011;3549;42.162;24.726;2022-07-30T04:39:51;18.30;;;11.40;;
7017;SDS011;3549;42.162;24.726;2022-07-30T04:42:22;15.77;;;11.00;;
7017;SDS011;3549;42.162;24.726;2022-07-30T04:44:49;17.27;;;10.60;;
7017;SDS011;3549;42.162;24.726;2022-07-30T04:47:14;15.23;;;10.83;;
7017;SDS011;3549;42.162;24.726;2022-07-30T04:49:40;15.00;;;10.93;;
7017;SDS011;3549;42.162;24.726;2022-07-30T04:52:07;14.90;;;10.60;;
7017;SDS011;3549;42.162;24.726;2022-07-30T04:54:54;12.33;;;10.10;;
7017;SDS011;3549;42.162;24.726;2022-07-30T04:57:22;17.53;;;11.30;;
7017;SDS011;3549;42.162;24.726;2022-07-30T04:59:49;16.00;;;11.33;;
7017;SDS011;3549;42.162;24.726;2022-07-30T05:02:14;17.07;;;12.37;;
7017;SDS011;3549;42.162;24.726;2022-07-30T05:04:42;17.37;;;11.77;;
7017;SDS011;3549;42.162;24.726;2022-07-30T05:07:09;15.43;;;11.63;;
7017;SDS011;3549;42.162;24.726;2022-07-30T05:09:37;15.50;;;11.70;;
7017;SDS011;3549;42.162;24.726;2022-07-30T05:12:03;16.13;;;11.60;;
7017;SDS011;3549;42.162;24.726;2022-07-30T05:14:29;17.43;;;11.93;;
7017;SDS011;3549;42.162;24.726;2022-07-30T05:16:54;17.47;;;11.57;;
7017;SDS011;3549;42.162;24.726;2022-07-30T05:19:20;16.50;;;11.50;;
7017;SDS011;3549;42.162;24.726;2022-07-30T05:21:46;17.00;;;11.00;;
7017;SDS011;3549;42.162;24.726;2022-07-30T05:24:11;19.20;;;13.10;;
7017;SDS011;3549;42.162;24.726;2022-07-30T05:26:38;17.87;;;13.07;;
7017;SDS011;3549;42.162;24.726;2022-07-30T05:29:03;18.77;;;13.33;;
7017;SDS011;3549;42.162;24.726;2022-07-30T05:31:29;15.47;;;11.43;;
7017;SDS011;3549;42.162;24.726;2022-07-30T05:33:54;18.57;;;12.10;;
7017;SDS011;3549;42.162;24.726;2022-07-30T05:36:20;13.63;;;11.80;;
7017;SDS011;3549;42.162;24.726;2022-07-30T05:38:45;14.50;;;11.20;;
7017;SDS011;3549;42.162;24.726;2022-07-30T05:41:11;15.83;;;10.57;;
7017;SDS011;3549;42.162;24.726;2022-07-30T05:43:37;12.33;;;10.57;;
7017;SDS011;3549;42.162;24.726;2022-07-30T05:46:02;12.77;;;10.60;;
7017;SDS011;3549;42.162;24.726;2022-07-30T05:48:27;15.50;;;10.57;;
7017;SDS011;3549;42.162;24.726;2022-07-30T05:50:55;14.30;;;10.50;;
7017;SDS011;3549;42.162;24.726;2022-07-30T05:53:21;12.17;;;10.40;;
7017;SDS011;3549;42.162;24.726;2022-07-30T05:55:46;16.60;;;10.50;;
7017;SDS011;3549;42.162;24.726;2022-07-30T05:58:12;13.80;;;10.07;;
7017;SDS011;3549;42.162;24.726;2022-07-30T06:00:37;15.70;;;9.63;;
7017;SDS011;3549;42.162;24.726;2022-07-30T06:03:03;12.57;;;9.97;;
7017;SDS011;3549;42.162;24.726;2022-07-30T06:05:28;14.63;;;10.40;;
7017;SDS011;3549;42.162;24.726;2022-07-30T06:07:56;12.07;;;10.10;;
7017;SDS011;3549;42.162;24.726;2022-07-30T06:10:21;13.03;;;9.77;;
7017;SDS011;3549;42.162;24.726;2022-07-30T06:12:47;12.70;;;9.90;;
7017;SDS011;3549;42.162;24.726;2022-07-30T06:15:12;14.13;;;9.40;;
7017;SDS011;3549;42.162;24.726;2022-07-30T06:17:41;15.00;;;10.30;;
7017;SDS011;3549;42.162;24.726;2022-07-30T06:20:09;12.00;;;9.90;;
7017;SDS011;3549;42.162;24.726;2022-07-30T06:22:39;12.63;;;10.80;;
7017;SDS011;3549;42.162;24.726;2022-07-30T06:25:05;10.82;;;9.32;;
7017;SDS011;3549;42.162;24.726;2022-07-30T06:27:31;11.15;;;9.85;;
7017;SDS011;3549;42.162;24.726;2022-07-30T06:30:00;13.38;;;9.63;;
7017;SDS011;3549;42.162;24.726;2022-07-30T06:32:27;16.60;;;9.90;;
7017;SDS011;3549;42.162;24.726;2022-07-30T06:34:53;12.52;;;9.60;;
7017;SDS011;3549;42.162;24.726;2022-07-30T06:37:18;13.40;;;9.75;;
7017;SDS011;3549;42.162;24.726;2022-07-30T06:39:44;14.13;;;9.93;;
7017;SDS011;3549;42.162;24.726;2022-07-30T06:42:09;12.30;;;9.85;;
7017;SDS011;3549;42.162;24.726;2022-07-30T06:44:34;11.52;;;9.98;;
7017;SDS011;3549;42.162;24.726;2022-07-30T06:47:00;15.68;;;9.90;;
7017;SDS011;3549;42.162;24.726;2022-07-30T06:49:25;15.02;;;10.20;;
7017;SDS011;3549;42.162;24.726;2022-07-30T06:51:50;11.73;;;9.85;;
7017;SDS011;3549;42.162;24.726;2022-07-30T06:54:16;14.48;;;9.75;;
7017;SDS011;3549;42.162;24.726;2022-07-30T06:56:42;14.80;;;10.38;;
7017;SDS011;3549;42.162;24.726;2022-07-30T06:59:07;11.85;;;9.70;;
7017;SDS011;3549;42.162;24.726;2022-07-30T07:01:33;13.73;;;9.90;;
7017;SDS011;3549;42.162;24.726;2022-07-30T07:03:58;12.43;;;8.85;;
7017;SDS011;3549;42.162;24.726;2022-07-30T07:06:23;10.70;;;9.20;;
7017;SDS011;3549;42.162;24.726;2022-07-30T07:08:49;11.10;;;8.93;;
7017;SDS011;3549;42.162;24.726;2022-07-30T07:11:14;12.55;;;8.95;;
7017;SDS011;3549;42.162;24.726;2022-07-30T07:13:40;10.85;;;9.65;;
7017;SDS011;3549;42.162;24.726;2022-07-30T07:16:05;10.80;;;8.80;;
7017;SDS011;3549;42.162;24.726;2022-07-30T07:18:31;11.80;;;9.40;;
7017;SDS011;3549;42.162;24.726;2022-07-30T07:20:56;11.43;;;9.48;;
7017;SDS011;3549;42.162;24.726;2022-07-30T07:23:22;11.20;;;9.20;;
7017;SDS011;3549;42.162;24.726;2022-07-30T07:25:48;12.50;;;10.13;;
7017;SDS011;3549;42.162;24.726;2022-07-30T07:28:13;12.25;;;9.00;;
7017;SDS011;3549;42.162;24.726;2022-07-30T07:30:40;15.10;;;9.60;;
7017;SDS011;3549;42.162;24.726;2022-07-30T07:33:06;11.05;;;9.25;;
7017;SDS011;3549;42.162;24.726;2022-07-30T07:35:32;12.55;;;9.13;;
7017;SDS011;3549;42.162;24.726;2022-07-30T07:37:58;11.13;;;9.30;;
7017;SDS011;3549;42.162;24.726;2022-07-30T07:40:24;12.50;;;9.85;;
7017;SDS011;3549;42.162;24.726;2022-07-30T07:42:49;12.13;;;9.35;;
7017;SDS011;3549;42.162;24.726;2022-07-30T07:45:15;11.70;;;9.82;;
7017;SDS011;3549;42.162;24.726;2022-07-30T07:47:48;15.40;;;9.25;;
7017;SDS011;3549;42.162;24.726;2022-07-30T07:50:14;11.10;;;9.05;;
7017;SDS011;3549;42.162;24.726;2022-07-30T07:52:43;13.95;;;9.00;;
7017;SDS011;3549;42.162;24.726;2022-07-30T07:55:08;9.73;;;8.75;;
7017;SDS011;3549;42.162;24.726;2022-07-30T07:57:41;10.60;;;9.27;;
7017;SDS011;3549;42.162;24.726;2022-07-30T08:00:08;14.35;;;8.90;;
7017;SDS011;3549;42.162;24.726;2022-07-30T08:02:35;9.82;;;8.23;;
7017;SDS011;3549;42.162;24.726;2022-07-30T08:05:01;12.65;;;8.57;;
7017;SDS011;3549;42.162;24.726;2022-07-30T08:07:28;10.05;;;8.57;;
7017;SDS011;3549;42.162;24.726;2022-07-30T08:09:54;11.07;;;9.35;;
7017;SDS011;3549;42.162;24.726;2022-07-30T08:12:20;11.00;;;9.32;;
7017;SDS011;3549;42.162;24.726;2022-07-30T08:14:45;11.50;;;8.80;;
7017;SDS011;3549;42.162;24.726;2022-07-30T08:17:11;10.70;;;9.63;;
7017;SDS011;3549;42.162;24.726;2022-07-30T08:19:36;12.13;;;9.25;;
7017;SDS011;3549;42.162;24.726;2022-07-30T08:22:02;10.45;;;9.45;;
7017;SDS011;3549;42.162;24.726;2022-07-30T08:24:27;10.90;;;9.30;;
7017;SDS011;3549;42.162;24.726;2022-07-30T08:26:52;11.23;;;8.93;;
7017;SDS011;3549;42.162;24.726;2022-07-30T08:29:18;13.57;;;10.10;;
7017;SDS011;3549;42.162;24.726;2022-07-30T08:31:43;11.40;;;9.02;;
7017;SDS011;3549;42.162;24.726;2022-07-30T08:34:09;12.35;;;8.82;;
7017;SDS011;3549;42.162;24.726;2022-07-30T08:36:34;10.70;;;8.70;;
7017;SDS011;3549;42.162;24.726;2022-07-30T08:38:59;10.02;;;8.88;;
7017;SDS011;3549;42.162;24.726;2022-07-30T08:41:25;10.48;;;8.63;;
7017;SDS011;3549;42.162;24.726;2022-07-30T08:43:52;9.88;;;8.68;;
7017;SDS011;3549;42.162;24.726;2022-07-30T08:46:18;11.77;;;8.68;;
7017;SDS011;3549;42.162;24.726;2022-07-30T08:48:49;12.75;;;9.10;;
7017;SDS011;3549;42.162;24.726;2022-07-30T08:51:16;14.10;;;9.50;;
7017;SDS011;3549;42.162;24.726;2022-07-30T08:53:43;10.80;;;8.75;;
7017;SDS011;3549;42.162;24.726;2022-07-30T08:56:10;11.77;;;8.35;;
7017;SDS011;3549;42.162;24.726;2022-07-30T08:58:35;9.10;;;8.20;;
7017;SDS011;3549;42.162;24.726;2022-07-30T09:01:01;9.88;;;8.15;;
7017;SDS011;3549;42.162;24.726;2022-07-30T09:03:28;8.60;;;7.78;;
7017;SDS011;3549;42.162;24.726;2022-07-30T09:05:54;9.82;;;8.25;;
7017;SDS011;3549;42.162;24.726;2022-07-30T09:08:19;12.00;;;8.02;;
7017;SDS011;3549;42.162;24.726;2022-07-30T09:10:46;9.70;;;8.20;;
7017;SDS011;3549;42.162;24.726;2022-07-30T09:13:25;8.10;;;7.30;;
7017;SDS011;3549;42.162;24.726;2022-07-30T09:15:51;8.35;;;7.43;;
7017;SDS011;3549;42.162;24.726;2022-07-30T09:18:31;8.23;;;7.40;;
7017;SDS011;3549;42.162;24.726;2022-07-30T09:20:57;9.88;;;7.10;;
7017;SDS011;3549;42.162;24.726;2022-07-30T09:23:54;7.15;;;6.45;;
7017;SDS011;3549;42.162;24.726;2022-07-30T09:26:31;8.43;;;6.88;;
7017;SDS011;3549;42.162;24.726;2022-07-30T09:29:14;7.72;;;7.03;;
7017;SDS011;3549;42.162;24.726;2022-07-30T09:31:54;7.50;;;6.80;;
7017;SDS011;3549;42.162;24.726;2022-07-30T09:37:02;7.80;;;6.80;;
7017;SDS011;3549;42.162;24.726;2022-07-30T09:39:41;7.75;;;6.80;;
7017;SDS011;3549;42.162;24.726;2022-07-30T09:42:20;7.38;;;6.60;;
7017;SDS011;3549;42.162;24.726;2022-07-30T09:44:47;8.70;;;6.30;;
7017;SDS011;3549;42.162;24.726;2022-07-30T09:47:30;7.10;;;6.40;;
7017;SDS011;3549;42.162;24.726;2022-07-30T09:50:07;8.57;;;6.80;;
7017;SDS011;3549;42.162;24.726;2022-07-30T09:52:35;7.53;;;6.70;;
7017;SDS011;3549;42.162;24.726;2022-07-30T09:55:03;7.78;;;6.28;;
7017;SDS011;3549;42.162;24.726;2022-07-30T09:57:29;7.18;;;6.57;;
7017;SDS011;3549;42.162;24.726;2022-07-30T09:59:55;7.97;;;7.13;;
7017;SDS011;3549;42.162;24.726;2022-07-30T10:02:28;8.63;;;7.28;;
7017;SDS011;3549;42.162;24.726;2022-07-30T10:05:06;6.60;;;6.00;;
7017;SDS011;3549;42.162;24.726;2022-07-30T10:07:36;8.05;;;6.35;;
7017;SDS011;3549;42.162;24.726;2022-07-30T10:10:03;7.25;;;6.55;;
7017;SDS011;3549;42.162;24.726;2022-07-30T10:12:28;7.03;;;6.32;;
7017;SDS011;3549;42.162;24.726;2022-07-30T10:14:57;7.60;;;6.70;;
7017;SDS011;3549;42.162;24.726;2022-07-30T10:17:25;7.00;;;6.28;;
7017;SDS011;3549;42.162;24.726;2022-07-30T10:19:51;7.97;;;6.78;;
7017;SDS011;3549;42.162;24.726;2022-07-30T10:22:17;7.03;;;6.32;;
7017;SDS011;3549;42.162;24.726;2022-07-30T10:24:43;7.63;;;6.55;;
7017;SDS011;3549;42.162;24.726;2022-07-30T10:27:09;6.85;;;6.25;;
7017;SDS011;3549;42.162;24.726;2022-07-30T10:29:36;6.65;;;5.95;;
7017;SDS011;3549;42.162;24.726;2022-07-30T10:32:02;8.10;;;7.30;;
7017;SDS011;3549;42.162;24.726;2022-07-30T10:34:28;8.13;;;6.50;;
7017;SDS011;3549;42.162;24.726;2022-07-30T10:36:55;6.15;;;5.57;;
7017;SDS011;3549;42.162;24.726;2022-07-30T10:39:26;7.50;;;6.07;;
7017;SDS011;3549;42.162;24.726;2022-07-30T10:47:16;6.40;;;5.85;;
7017;SDS011;3549;42.162;24.726;2022-07-30T10:52:49;7.85;;;5.70;;
7017;SDS011;3549;42.162;24.726;2022-07-30T10:55:26;9.20;;;7.25;;
7017;SDS011;3549;42.162;24.726;2022-07-30T10:58:03;17.80;;;13.52;;
7017;SDS011;3549;42.162;24.726;2022-07-30T11:00:32;6.47;;;5.88;;
7017;SDS011;3549;42.162;24.726;2022-07-30T11:03:15;7.40;;;6.70;;
7017;SDS011;3549;42.162;24.726;2022-07-30T11:05:42;7.43;;;5.70;;
7017;SDS011;3549;42.162;24.726;2022-07-30T11:11:41;7.53;;;5.88;;
7017;SDS011;3549;42.162;24.726;2022-07-30T11:16:19;6.20;;;5.55;;
7017;SDS011;3549;42.162;24.726;2022-07-30T11:21:44;7.32;;;5.70;;
7017;SDS011;3549;42.162;24.726;2022-07-30T11:27:08;7.00;;;5.50;;
7017;SDS011;3549;42.162;24.726;2022-07-30T11:29:35;8.10;;;5.95;;
7017;SDS011;3549;42.162;24.726;2022-07-30T11:34:48;11.35;;;5.65;;
7017;SDS011;3549;42.162;24.726;2022-07-30T11:37:14;6.22;;;5.55;;
7017;SDS011;3549;42.162;24.726;2022-07-30T11:47:41;5.57;;;5.00;;
7017;SDS011;3549;42.162;24.726;2022-07-30T11:50:29;5.68;;;5.18;;
7017;SDS011;3549;42.162;24.726;2022-07-30T11:52:57;7.20;;;4.90;;
7017;SDS011;3549;42.162;24.726;2022-07-30T11:55:29;5.22;;;4.70;;
7017;SDS011;3549;42.162;24.726;2022-07-30T11:57:57;5.50;;;4.97;;
7017;SDS011;3549;42.162;24.726;2022-07-30T12:00:23;6.65;;;4.70;;
7017;SDS011;3549;42.162;24.726;2022-07-30T12:02:49;5.40;;;4.50;;
7017;SDS011;3549;42.162;24.726;2022-07-30T12:05:15;6.25;;;4.40;;
7017;SDS011;3549;42.162;24.726;2022-07-30T12:07:50;4.57;;;4.18;;
7017;SDS011;3549;42.162;24.726;2022-07-30T12:10:20;5.05;;;4.35;;
7017;SDS011;3549;42.162;24.726;2022-07-30T12:12:45;5.95;;;4.22;;
7017;SDS011;3549;42.162;24.726;2022-07-30T12:15:26;5.53;;;3.70;;
7017;SDS011;3549;42.162;24.726;2022-07-30T12:17:53;6.05;;;3.90;;
7017;SDS011;3549;42.162;24.726;2022-07-30T12:20:18;6.00;;;3.90;;
7017;SDS011;3549;42.162;24.726;2022-07-30T12:22:45;4.25;;;3.85;;
7017;SDS011;3549;42.162;24.726;2022-07-30T12:25:11;4.78;;;3.90;;
7017;SDS011;3549;42.162;24.726;2022-07-30T12:27:37;4.55;;;4.07;;
7017;SDS011;3549;42.162;24.726;2022-07-30T12:30:04;6.25;;;3.95;;
7017;SDS011;3549;42.162;24.726;2022-07-30T12:32:30;4.10;;;3.50;;
7017;SDS011;3549;42.162;24.726;2022-07-30T12:34:56;3.90;;;3.60;;
7017;SDS011;3549;42.162;24.726;2022-07-30T12:37:22;3.88;;;3.55;;
7017;SDS011;3549;42.162;24.726;2022-07-30T12:40:10;3.90;;;3.60;;
7017;SDS011;3549;42.162;24.726;2022-07-30T12:42:47;4.30;;;3.60;;
7017;SDS011;3549;42.162;24.726;2022-07-30T12:48:10;4.07;;;3.70;;
7017;SDS011;3549;42.162;24.726;2022-07-30T12:50:35;3.83;;;3.53;;
7017;SDS011;3549;42.162;24.726;2022-07-30T12:53:01;4.55;;;3.78;;
7017;SDS011;3549;42.162;24.726;2022-07-30T12:55:30;4.03;;;3.72;;
7017;SDS011;3549;42.162;24.726;2022-07-30T12:58:05;3.70;;;3.40;;
7017;SDS011;3549;42.162;24.726;2022-07-30T13:00:32;4.28;;;3.88;;
7017;SDS011;3549;42.162;24.726;2022-07-30T13:03:20;4.13;;;3.75;;
7017;SDS011;3549;42.162;24.726;2022-07-30T13:05:50;3.90;;;3.50;;
7017;SDS011;3549;42.162;24.726;2022-07-30T13:08:16;4.22;;;3.60;;
7017;SDS011;3549;42.162;24.726;2022-07-30T13:10:57;3.80;;;3.50;;
7017;SDS011;3549;42.162;24.726;2022-07-30T13:13:24;5.13;;;3.67;;
7017;SDS011;3549;42.162;24.726;2022-07-30T13:16:00;3.90;;;3.60;;
7017;SDS011;3549;42.162;24.726;2022-07-30T13:18:27;5.72;;;4.03;;
7017;SDS011;3549;42.162;24.726;2022-07-30T13:20:54;4.25;;;3.95;;
7017;SDS011;3549;42.162;24.726;2022-07-30T13:23:20;5.95;;;4.50;;
7017;SDS011;3549;42.162;24.726;2022-07-30T13:25:46;5.32;;;4.05;;
7017;SDS011;3549;42.162;24.726;2022-07-30T13:28:11;4.78;;;4.20;;
7017;SDS011;3549;42.162;24.726;2022-07-30T13:30:37;5.45;;;4.20;;
7017;SDS011;3549;42.162;24.726;2022-07-30T13:33:02;4.60;;;4.20;;
7017;SDS011;3549;42.162;24.726;2022-07-30T13:35:27;4.80;;;4.40;;
7017;SDS011;3549;42.162;24.726;2022-07-30T13:37:53;5.03;;;4.10;;
7017;SDS011;3549;42.162;24.726;2022-07-30T13:40:18;6.15;;;4.40;;
7017;SDS011;3549;42.162;24.726;2022-07-30T13:42:44;4.40;;;4.00;;
7017;SDS011;3549;42.162;24.726;2022-07-30T13:45:09;4.60;;;4.03;;
7017;SDS011;3549;42.162;24.726;2022-07-30T13:47:35;5.40;;;4.10;;
7017;SDS011;3549;42.162;24.726;2022-07-30T13:50:00;4.63;;;4.10;;
7017;SDS011;3549;42.162;24.726;2022-07-30T13:52:26;5.07;;;4.18;;
7017;SDS011;3549;42.162;24.726;2022-07-30T13:54:51;4.50;;;3.85;;
7017;SDS011;3549;42.162;24.726;2022-07-30T13:57:18;6.68;;;4.47;;
7017;SDS011;3549;42.162;24.726;2022-07-30T13:59:44;4.53;;;4.10;;
7017;SDS011;3549;42.162;24.726;2022-07-30T14:02:09;4.43;;;4.03;;
7017;SDS011;3549;42.162;24.726;2022-07-30T14:04:35;4.93;;;4.35;;
7017;SDS011;3549;42.162;24.726;2022-07-30T14:07:00;4.57;;;4.18;;
7017;SDS011;3549;42.162;24.726;2022-07-30T14:09:26;4.60;;;4.20;;
7017;SDS011;3549;42.162;24.726;2022-07-30T14:11:52;4.95;;;4.43;;
7017;SDS011;3549;42.162;24.726;2022-07-30T14:14:18;4.82;;;4.35;;
7017;SDS011;3549;42.162;24.726;2022-07-30T14:16:43;4.88;;;4.47;;
7017;SDS011;3549;42.162;24.726;2022-07-30T14:19:11;4.90;;;4.47;;
7017;SDS011;3549;42.162;24.726;2022-07-30T14:21:37;5.15;;;4.38;;
7017;SDS011;3549;42.162;24.726;2022-07-30T14:24:04;5.95;;;4.38;;
7017;SDS011;3549;42.162;24.726;2022-07-30T14:26:30;4.72;;;4.30;;
7017;SDS011;3549;42.162;24.726;2022-07-30T14:28:55;4.93;;;4.45;;
7017;SDS011;3549;42.162;24.726;2022-07-30T14:31:21;4.78;;;4.15;;
7017;SDS011;3549;42.162;24.726;2022-07-30T14:33:46;5.55;;;4.35;;
7017;SDS011;3549;42.162;24.726;2022-07-30T14:36:12;5.25;;;4.20;;
7017;SDS011;3549;42.162;24.726;2022-07-30T14:38:37;6.15;;;4.55;;
7017;SDS011;3549;42.162;24.726;2022-07-30T14:41:04;4.93;;;4.53;;
7017;SDS011;3549;42.162;24.726;2022-07-30T14:43:30;7.00;;;5.10;;
7017;SDS011;3549;42.162;24.726;2022-07-30T14:45:56;5.65;;;4.97;;
7017;SDS011;3549;42.162;24.726;2022-07-30T14:48:21;6.10;;;5.50;;
7017;SDS011;3549;42.162;24.726;2022-07-30T14:50:47;5.18;;;4.65;;
7017;SDS011;3549;42.162;24.726;2022-07-30T14:53:12;6.70;;;5.20;;
7017;SDS011;3549;42.162;24.726;2022-07-30T14:55:38;7.53;;;5.53;;
7017;SDS011;3549;42.162;24.726;2022-07-30T14:58:03;6.85;;;5.38;;
7017;SDS011;3549;42.162;24.726;2022-07-30T15:00:29;7.30;;;6.50;;
7017;SDS011;3549;42.162;24.726;2022-07-30T15:02:54;6.18;;;5.57;;
7017;SDS011;3549;42.162;24.726;2022-07-30T15:05:19;8.65;;;4.80;;
7017;SDS011;3549;42.162;24.726;2022-07-30T15:07:45;6.13;;;5.63;;
7017;SDS011;3549;42.162;24.726;2022-07-30T15:10:10;6.60;;;6.00;;
7017;SDS011;3549;42.162;24.726;2022-07-30T15:12:36;6.80;;;6.20;;
7017;SDS011;3549;42.162;24.726;2022-07-30T15:15:01;5.85;;;5.35;;
7017;SDS011;3549;42.162;24.726;2022-07-30T15:17:27;6.28;;;5.68;;
7017;SDS011;3549;42.162;24.726;2022-07-30T15:19:53;8.10;;;6.05;;
7017;SDS011;3549;42.162;24.726;2022-07-30T15:22:18;7.15;;;6.25;;
7017;SDS011;3549;42.162;24.726;2022-07-30T15:24:44;7.18;;;5.97;;
7017;SDS011;3549;42.162;24.726;2022-07-30T15:27:09;7.28;;;5.53;;
7017;SDS011;3549;42.162;24.726;2022-07-30T15:29:35;6.97;;;5.68;;
7017;SDS011;3549;42.162;24.726;2022-07-30T15:32:01;7.97;;;5.63;;
7017;SDS011;3549;42.162;24.726;2022-07-30T15:34:27;7.00;;;5.80;;